Time;durP1;ratioP1;P1;durP2;ratioP2;P2;SDS_P1;SDS_P2;PMS_P1;PMS_P2;Temp;Humidity;BMP_temperature;BMP_pressure;BME280_temperature;BME280_humidity;BME280_pressure;Samples;Min_cycle;Max_cycle;Signal;HPM_P1;HPM_P2
2022/05/14 00:01:27;;;;;;;13.88;7.15;;;;;;;;;;4970047;28;20163;-63
2022/05/14 00:03:53;;;;;;;17.33;6.32;;;;;;;;;;4964792;28;20102;-63
2022/05/14 00:06:21;;;;;;;20.58;6.72;;;;;;;;;;4969360;28;20061;-63
2022/05/14 00:08:47;;;;;;;16.02;7.47;;;;;;;;;;4976045;28;20036;-63
2022/05/14 00:14:03;;;;;;;16.55;7.43;;;;;;;;;;4974740;28;20030;-63
2022/05/14 00:16:31;;;;;;;18.17;7.00;;;;;;;;;;4964136;28;20129;-63
2022/05/14 00:18:57;;;;;;;20.15;7.90;;;;;;;;;;4961975;28;20993;-63
2022/05/14 00:21:23;;;;;;;16.42;7.03;;;;;;;;;;4965665;28;20055;-63
2022/05/14 00:23:49;;;;;;;14.85;7.32;;;;;;;;;;4963858;28;20070;-63
2022/05/14 00:26:16;;;;;;;13.85;7.03;;;;;;;;;;4972783;28;20050;-63
2022/05/14 00:28:42;;;;;;;12.65;7.18;;;;;;;;;;4957740;28;20033;-63
2022/05/14 00:31:09;;;;;;;19.20;7.43;;;;;;;;;;4959323;28;20046;-63
2022/05/14 00:33:35;;;;;;;15.27;7.38;;;;;;;;;;4969177;28;20097;-63
2022/05/14 00:36:01;;;;;;;12.65;7.60;;;;;;;;;;4966778;28;20031;-62
2022/05/14 00:38:27;;;;;;;18.30;7.20;;;;;;;;;;4971288;28;20026;-63
2022/05/14 00:41:01;;;;;;;16.48;8.57;;;;;;;;;;4967233;28;20035;-63
2022/05/14 00:43:28;;;;;;;17.08;8.30;;;;;;;;;;4964205;28;20039;-63
2022/05/14 00:46:15;;;;;;;13.60;7.60;;;;;;;;;;4964476;28;20039;-63
2022/05/14 00:48:43;;;;;;;16.73;7.97;;;;;;;;;;4958560;28;20027;-62
2022/05/14 00:51:15;;;;;;;14.68;7.82;;;;;;;;;;4969627;28;20199;-62
2022/05/14 00:53:44;;;;;;;16.40;8.23;;;;;;;;;;4964763;28;20034;-63
2022/05/14 00:56:14;;;;;;;17.88;8.48;;;;;;;;;;4973133;28;21881;-63
2022/05/14 00:59:01;;;;;;;13.10;8.48;;;;;;;;;;4968049;28;20084;-62
2022/05/14 01:01:27;;;;;;;18.67;9.32;;;;;;;;;;4962878;28;20972;-63
2022/05/14 01:03:52;;;;;;;18.75;8.60;;;;;;;;;;4966588;28;20045;-62
2022/05/14 01:06:20;;;;;;;18.48;9.05;;;;;;;;;;4962903;28;20046;-63
2022/05/14 01:08:50;;;;;;;17.10;8.32;;;;;;;;;;4965572;28;20361;-62
2022/05/14 01:11:16;;;;;;;15.05;8.68;;;;;;;;;;4969093;28;20039;-63
2022/05/14 01:13:42;;;;;;;15.50;9.10;;;;;;;;;;4965264;28;20062;-63
2022/05/14 01:16:08;;;;;;;20.38;10.05;;;;;;;;;;4961260;28;20117;-63
2022/05/14 01:18:36;;;;;;;21.95;9.07;;;;;;;;;;4959843;28;20038;-63
2022/05/14 01:21:05;;;;;;;20.02;9.60;;;;;;;;;;4963873;28;20041;-63
2022/05/14 01:27:01;;;;;;;17.83;9.05;;;;;;;;;;4961667;28;20202;-62
2022/05/14 01:29:27;;;;;;;19.63;9.85;;;;;;;;;;4967526;28;20380;-63
2022/05/14 01:31:54;;;;;;;19.52;9.60;;;;;;;;;;4965156;28;20058;-63
2022/05/14 01:34:25;;;;;;;17.20;9.15;;;;;;;;;;4953197;28;20035;-63
2022/05/14 01:36:51;;;;;;;19.27;9.95;;;;;;;;;;4965081;28;20043;-63
2022/05/14 01:39:18;;;;;;;15.45;9.07;;;;;;;;;;4964667;28;20027;-63
2022/05/14 01:41:44;;;;;;;23.15;9.27;;;;;;;;;;4966557;28;20494;-63
2022/05/14 01:44:10;;;;;;;20.88;10.80;;;;;;;;;;4957873;28;20057;-62
2022/05/14 01:46:36;;;;;;;22.35;11.77;;;;;;;;;;4959498;28;20125;-63
2022/05/14 01:49:02;;;;;;;22.90;11.32;;;;;;;;;;4958073;28;20114;-62
2022/05/14 01:51:29;;;;;;;24.45;11.32;;;;;;;;;;4974449;28;20079;-62
2022/05/14 01:53:55;;;;;;;30.52;11.10;;;;;;;;;;4964646;28;20059;-62
2022/05/14 01:56:21;;;;;;;21.60;11.57;;;;;;;;;;4964258;28;20062;-63
2022/05/14 01:58:47;;;;;;;22.83;12.00;;;;;;;;;;4971085;28;20019;-63
2022/05/14 02:01:34;;;;;;;24.05;12.27;;;;;;;;;;4960180;28;20027;-62
2022/05/14 02:04:03;;;;;;;24.45;12.38;;;;;;;;;;4969651;28;20082;-62
2022/05/14 02:06:30;;;;;;;22.15;11.65;;;;;;;;;;4967079;28;20122;-62
2022/05/14 02:08:57;;;;;;;27.67;12.02;;;;;;;;;;4961983;28;20542;-63
2022/05/14 02:11:24;;;;;;;25.08;13.15;;;;;;;;;;4961020;28;20031;-62
2022/05/14 02:13:50;;;;;;;23.90;13.20;;;;;;;;;;4975747;28;20041;-62
2022/05/14 02:16:17;;;;;;;18.08;12.50;;;;;;;;;;4968672;28;20043;-62
2022/05/14 02:18:43;;;;;;;20.00;12.35;;;;;;;;;;4958959;28;20074;-63
2022/05/14 02:21:09;;;;;;;26.23;12.55;;;;;;;;;;4967063;28;20065;-63
2022/05/14 02:23:38;;;;;;;20.08;11.27;;;;;;;;;;4963558;28;20114;-63
2022/05/14 02:26:09;;;;;;;19.63;12.02;;;;;;;;;;4964868;28;20032;-62
2022/05/14 02:28:35;;;;;;;24.75;13.15;;;;;;;;;;4965823;28;20502;-62
2022/05/14 02:31:01;;;;;;;20.05;13.32;;;;;;;;;;4969764;28;20493;-62
2022/05/14 02:33:27;;;;;;;23.92;12.82;;;;;;;;;;4968890;28;20030;-63
2022/05/14 02:35:53;;;;;;;21.95;11.43;;;;;;;;;;4972067;28;20035;-62
2022/05/14 02:38:19;;;;;;;23.45;12.70;;;;;;;;;;4961279;28;20030;-63
2022/05/14 02:40:44;;;;;;;25.50;12.65;;;;;;;;;;4957727;28;20031;-62
2022/05/14 02:43:10;;;;;;;20.75;12.18;;;;;;;;;;4966355;28;20034;-62
2022/05/14 02:45:37;;;;;;;30.30;13.77;;;;;;;;;;4964365;28;20090;-62
2022/05/14 02:48:03;;;;;;;25.83;13.48;;;;;;;;;;4975210;28;20452;-61
2022/05/14 02:50:29;;;;;;;25.48;14.18;;;;;;;;;;4959865;28;20051;-62
2022/05/14 02:52:55;;;;;;;27.02;13.95;;;;;;;;;;4968713;28;20061;-62
2022/05/14 02:55:21;;;;;;;27.27;13.55;;;;;;;;;;4963705;28;20026;-60
2022/05/14 02:57:47;;;;;;;30.85;15.60;;;;;;;;;;4965553;28;20078;-62
2022/05/14 03:00:17;;;;;;;29.98;13.32;;;;;;;;;;4956835;28;20062;-62
2022/05/14 03:02:44;;;;;;;30.27;14.35;;;;;;;;;;4970380;28;20094;-62
2022/05/14 03:05:17;;;;;;;27.58;14.00;;;;;;;;;;4970855;28;20039;-62
2022/05/14 03:07:43;;;;;;;33.67;14.88;;;;;;;;;;4969064;28;20082;-62
2022/05/14 03:10:09;;;;;;;26.33;14.23;;;;;;;;;;4969660;28;20030;-63
2022/05/14 03:12:35;;;;;;;26.92;13.85;;;;;;;;;;4968862;28;20046;-62
2022/05/14 03:15:01;;;;;;;28.05;15.02;;;;;;;;;;4968102;28;20050;-62
2022/05/14 03:17:28;;;;;;;26.13;13.73;;;;;;;;;;4960612;28;20047;-63
2022/05/14 03:19:54;;;;;;;27.75;14.32;;;;;;;;;;4970567;28;20034;-62
2022/05/14 03:22:20;;;;;;;26.85;14.63;;;;;;;;;;4968932;28;20039;-62
2022/05/14 03:24:46;;;;;;;24.75;14.75;;;;;;;;;;4977600;28;20432;-63
2022/05/14 03:27:12;;;;;;;27.42;13.82;;;;;;;;;;4965643;28;20094;-62
2022/05/14 03:29:39;;;;;;;34.28;15.30;;;;;;;;;;4966099;28;20113;-62
2022/05/14 03:32:05;;;;;;;26.40;14.18;;;;;;;;;;4966029;28;20508;-62
2022/05/14 03:34:32;;;;;;;24.50;13.15;;;;;;;;;;4964779;28;20035;-62
2022/05/14 03:36:58;;;;;;;28.55;13.85;;;;;;;;;;4956854;28;20038;-62
2022/05/14 03:39:24;;;;;;;22.33;13.63;;;;;;;;;;4961161;28;20499;-62
2022/05/14 03:41:50;;;;;;;23.52;12.60;;;;;;;;;;4970137;28;20022;-63
2022/05/14 03:44:16;;;;;;;21.42;13.10;;;;;;;;;;4969091;28;20039;-62
2022/05/14 03:46:42;;;;;;;27.55;13.30;;;;;;;;;;4960980;28;20027;-62
2022/05/14 03:49:09;;;;;;;21.83;12.38;;;;;;;;;;4968152;28;20089;-62
2022/05/14 03:51:34;;;;;;;31.83;14.65;;;;;;;;;;4965020;28;20070;-62
2022/05/14 03:54:00;;;;;;;35.13;14.43;;;;;;;;;;4964005;28;20455;-62
2022/05/14 03:56:26;;;;;;;32.47;14.25;;;;;;;;;;4966916;28;20037;-62
2022/05/14 03:58:52;;;;;;;30.70;14.05;;;;;;;;;;4962236;28;20034;-62
2022/05/14 04:01:19;;;;;;;36.00;15.48;;;;;;;;;;4967825;28;20019;-62
2022/05/14 04:03:45;;;;;;;27.77;16.02;;;;;;;;;;4964698;28;20085;-62
2022/05/14 04:06:11;;;;;;;29.80;15.80;;;;;;;;;;4964593;28;20494;-63
2022/05/14 04:08:38;;;;;;;28.70;16.35;;;;;;;;;;4970773;28;20027;-62
2022/05/14 04:11:05;;;;;;;33.58;16.77;;;;;;;;;;4961353;28;20046;-62
2022/05/14 04:13:31;;;;;;;31.42;16.10;;;;;;;;;;4970300;28;20109;-62
2022/05/14 04:15:57;;;;;;;29.92;17.25;;;;;;;;;;4967224;28;20477;-62
2022/05/14 04:18:25;;;;;;;34.22;16.92;;;;;;;;;;4968375;28;20035;-62
2022/05/14 04:20:55;;;;;;;31.85;16.15;;;;;;;;;;4968918;28;20046;-62
2022/05/14 04:23:22;;;;;;;31.90;17.00;;;;;;;;;;4965707;28;20061;-60
2022/05/14 04:25:52;;;;;;;37.65;18.98;;;;;;;;;;4970215;28;20470;-62
2022/05/14 04:28:19;;;;;;;35.60;17.38;;;;;;;;;;4962258;28;20096;-62
2022/05/14 04:30:45;;;;;;;32.10;16.75;;;;;;;;;;4957695;28;20034;-62
2022/05/14 04:33:12;;;;;;;35.13;16.20;;;;;;;;;;4970324;28;20555;-62
2022/05/14 04:35:38;;;;;;;33.88;16.10;;;;;;;;;;4966107;28;20103;-62
2022/05/14 04:38:05;;;;;;;30.33;16.60;;;;;;;;;;4974844;28;20037;-62
2022/05/14 04:40:30;;;;;;;29.90;16.90;;;;;;;;;;4971350;28;20033;-62
2022/05/14 04:42:56;;;;;;;29.38;15.73;;;;;;;;;;4964332;28;20031;-62
2022/05/14 04:45:22;;;;;;;32.78;16.83;;;;;;;;;;4967680;28;20034;-61
2022/05/14 04:47:48;;;;;;;27.55;15.55;;;;;;;;;;4966438;28;20051;-62
2022/05/14 04:50:15;;;;;;;30.50;16.65;;;;;;;;;;4962004;28;20019;-62
2022/05/14 04:52:40;;;;;;;27.15;16.27;;;;;;;;;;4960900;28;20035;-62
2022/05/14 04:55:07;;;;;;;35.22;16.80;;;;;;;;;;4956284;28;20366;-62
2022/05/14 04:57:33;;;;;;;25.33;15.98;;;;;;;;;;4958884;28;20035;-62
2022/05/14 04:59:59;;;;;;;25.85;15.88;;;;;;;;;;4968671;28;20696;-62
2022/05/14 05:05:12;;;;;;;27.13;16.05;;;;;;;;;;4965261;28;20062;-62
2022/05/14 05:07:38;;;;;;;28.20;16.38;;;;;;;;;;4961621;28;20035;-62
2022/05/14 05:10:04;;;;;;;32.22;16.40;;;;;;;;;;4956380;28;20728;-62
2022/05/14 05:12:30;;;;;;;24.90;17.17;;;;;;;;;;4966194;28;20043;-62
2022/05/14 05:14:56;;;;;;;28.65;16.70;;;;;;;;;;4970114;28;20370;-62
2022/05/14 05:17:22;;;;;;;32.17;16.58;;;;;;;;;;4967764;28;20098;-60
2022/05/14 05:19:47;;;;;;;28.77;15.90;;;;;;;;;;4966955;28;20499;-62
2022/05/14 05:22:13;;;;;;;38.55;16.35;;;;;;;;;;4961666;28;20661;-62
2022/05/14 05:24:39;;;;;;;32.50;16.20;;;;;;;;;;4965941;28;20081;-62
2022/05/14 05:27:05;;;;;;;30.13;17.17;;;;;;;;;;4964662;28;20039;-62
2022/05/14 05:29:31;;;;;;;30.20;17.38;;;;;;;;;;4966751;28;20030;-62
2022/05/14 05:31:56;;;;;;;30.95;16.30;;;;;;;;;;4963050;28;20120;-62
2022/05/14 05:34:22;;;;;;;26.90;15.43;;;;;;;;;;4963633;28;20065;-62
2022/05/14 05:36:48;;;;;;;24.05;14.82;;;;;;;;;;4960496;28;20038;-62
2022/05/14 05:39:13;;;;;;;24.77;14.65;;;;;;;;;;4956592;28;20043;-62
2022/05/14 05:41:39;;;;;;;29.58;14.88;;;;;;;;;;4966914;28;20507;-62
2022/05/14 05:44:05;;;;;;;27.70;14.80;;;;;;;;;;4967681;28;20062;-61
2022/05/14 05:46:32;;;;;;;31.73;15.93;;;;;;;;;;4966026;28;20034;-62
2022/05/14 05:48:58;;;;;;;23.83;14.38;;;;;;;;;;4959127;28;20090;-62
2022/05/14 05:51:24;;;;;;;26.40;13.70;;;;;;;;;;4964108;28;20491;-62
2022/05/14 05:56:56;;;;;;;24.85;12.90;;;;;;;;;;4959881;28;20031;-62
2022/05/14 05:59:23;;;;;;;24.55;13.85;;;;;;;;;;4965041;28;20046;-61
2022/05/14 06:01:50;;;;;;;27.85;13.85;;;;;;;;;;4960859;28;20248;-62
2022/05/14 06:04:16;;;;;;;20.50;12.50;;;;;;;;;;4963595;28;20030;-62
2022/05/14 06:06:42;;;;;;;26.77;14.10;;;;;;;;;;4960959;28;20031;-61
2022/05/14 06:09:10;;;;;;;21.52;12.88;;;;;;;;;;4971682;28;20046;-62
2022/05/14 06:11:36;;;;;;;28.85;13.23;;;;;;;;;;4959681;28;20035;-62
2022/05/14 06:14:02;;;;;;;20.00;11.98;;;;;;;;;;4963388;28;20058;-60
2022/05/14 06:16:28;;;;;;;20.70;12.00;;;;;;;;;;4967097;28;20688;-62
2022/05/14 06:18:54;;;;;;;32.15;13.52;;;;;;;;;;4960584;28;20035;-62
2022/05/14 06:21:19;;;;;;;22.98;12.70;;;;;;;;;;4959951;28;20038;-62
2022/05/14 06:23:45;;;;;;;24.80;12.55;;;;;;;;;;4964141;28;20045;-62
2022/05/14 06:26:11;;;;;;;22.05;12.27;;;;;;;;;;4963689;28;20031;-62
2022/05/14 06:28:36;;;;;;;26.67;11.93;;;;;;;;;;4969476;28;20035;-62
2022/05/14 06:31:03;;;;;;;25.27;12.05;;;;;;;;;;4961334;28;20089;-62
2022/05/14 06:33:29;;;;;;;22.52;11.65;;;;;;;;;;4962843;28;20595;-62
2022/05/14 06:35:55;;;;;;;19.23;11.32;;;;;;;;;;4961276;28;20046;-62
2022/05/14 06:38:20;;;;;;;21.50;10.93;;;;;;;;;;4963466;28;20031;-62
2022/05/14 06:40:46;;;;;;;18.85;10.93;;;;;;;;;;4961830;28;20388;-62
2022/05/14 06:43:16;;;;;;;17.02;10.93;;;;;;;;;;4964800;28;20042;-62
2022/05/14 06:45:43;;;;;;;18.13;10.75;;;;;;;;;;4963295;28;20089;-62
2022/05/14 06:48:09;;;;;;;23.67;10.73;;;;;;;;;;4956785;28;20038;-62
2022/05/14 06:50:44;;;;;;;17.13;9.60;;;;;;;;;;4963252;28;20109;-62
2022/05/14 06:53:10;;;;;;;18.98;9.07;;;;;;;;;;4960269;28;20039;-62
2022/05/14 06:55:40;;;;;;;13.25;9.30;;;;;;;;;;4963120;28;20035;-62
2022/05/14 06:58:08;;;;;;;14.05;9.10;;;;;;;;;;4959061;28;20034;-62
2022/05/14 07:00:34;;;;;;;17.05;10.55;;;;;;;;;;4956584;28;20043;-62
2022/05/14 07:08:29;;;;;;;14.15;8.82;;;;;;;;;;4967801;28;20476;-62
2022/05/14 07:10:54;;;;;;;16.63;8.88;;;;;;;;;;4967292;28;20065;-62
2022/05/14 07:13:20;;;;;;;14.73;8.68;;;;;;;;;;4959089;28;20673;-62
2022/05/14 07:15:45;;;;;;;36.63;9.10;;;;;;;;;;4964969;28;20050;-62
2022/05/14 07:18:11;;;;;;;16.83;8.60;;;;;;;;;;4961828;28;20058;-62
2022/05/14 07:20:37;;;;;;;14.52;8.68;;;;;;;;;;4966368;28;20542;-62
2022/05/14 07:23:03;;;;;;;16.30;8.73;;;;;;;;;;4965687;28;20027;-62
2022/05/14 07:25:29;;;;;;;16.27;8.30;;;;;;;;;;4958597;28;20081;-62
2022/05/14 07:27:55;;;;;;;14.50;8.23;;;;;;;;;;4959856;28;20035;-62
2022/05/14 07:30:21;;;;;;;15.65;7.50;;;;;;;;;;4959811;28;20039;-62
2022/05/14 07:32:47;;;;;;;23.35;8.10;;;;;;;;;;4959235;28;20043;-61
2022/05/14 07:35:13;;;;;;;11.38;7.35;;;;;;;;;;4965997;28;20038;-62
2022/05/14 07:37:44;;;;;;;12.60;7.65;;;;;;;;;;4962774;28;20117;-62
2022/05/14 07:40:17;;;;;;;13.15;7.82;;;;;;;;;;4964921;28;20043;-62
2022/05/14 07:43:00;;;;;;;9.73;6.63;;;;;;;;;;4963652;28;20039;-62
2022/05/14 07:45:42;;;;;;;12.57;6.68;;;;;;;;;;4962147;28;20031;-62
2022/05/14 07:48:20;;;;;;;23.98;8.88;;;;;;;;;;4963626;28;20121;-63
2022/05/14 07:50:47;;;;;;;13.38;7.57;;;;;;;;;;4960747;28;20104;-62
2022/05/14 07:53:15;;;;;;;13.93;7.05;;;;;;;;;;4964413;28;20058;-62
2022/05/14 07:55:43;;;;;;;13.45;7.30;;;;;;;;;;4964302;28;20065;-62
2022/05/14 07:58:09;;;;;;;11.95;7.45;;;;;;;;;;4970064;28;20106;-62
2022/05/14 08:00:34;;;;;;;12.90;7.50;;;;;;;;;;4962427;28;20122;-62
2022/05/14 08:03:01;;;;;;;13.63;6.85;;;;;;;;;;4966179;28;20032;-62
2022/05/14 08:05:27;;;;;;;11.18;7.43;;;;;;;;;;4962128;28;20046;-62
2022/05/14 08:07:52;;;;;;;9.90;6.78;;;;;;;;;;4964054;28;20031;-62
2022/05/14 08:10:19;;;;;;;11.88;6.85;;;;;;;;;;4961922;28;20162;-62
2022/05/14 08:12:53;;;;;;;15.00;7.32;;;;;;;;;;4961367;28;20027;-62
2022/05/14 08:15:21;;;;;;;31.05;7.95;;;;;;;;;;4963288;28;20040;-63
2022/05/14 08:17:47;;;;;;;12.52;7.75;;;;;;;;;;4964636;28;20043;-63
2022/05/14 08:20:14;;;;;;;14.25;8.07;;;;;;;;;;4967420;28;20030;-62
2022/05/14 08:25:26;;;;;;;13.95;7.15;;;;;;;;;;4970272;28;20113;-63
2022/05/14 08:27:52;;;;;;;13.57;8.38;;;;;;;;;;4964595;28;20042;-63
2022/05/14 08:30:24;;;;;;;12.07;7.47;;;;;;;;;;4965940;28;20023;-62
2022/05/14 08:32:50;;;;;;;13.43;7.72;;;;;;;;;;4970373;28;20023;-62
2022/05/14 08:35:18;;;;;;;16.30;7.80;;;;;;;;;;4960878;28;20030;-62
2022/05/14 08:37:44;;;;;;;13.38;8.10;;;;;;;;;;4960535;28;20036;-63
2022/05/14 08:40:20;;;;;;;17.45;7.95;;;;;;;;;;4964082;28;20031;-62
2022/05/14 08:42:52;;;;;;;13.73;8.80;;;;;;;;;;4963203;28;20038;-62
2022/05/14 08:45:20;;;;;;;15.82;8.23;;;;;;;;;;4963595;28;20050;-63
2022/05/14 08:47:55;;;;;;;20.45;8.02;;;;;;;;;;4961842;28;20507;-62
2022/05/14 08:50:25;;;;;;;10.82;7.90;;;;;;;;;;4959031;28;20027;-62
2022/05/14 08:53:00;;;;;;;20.10;9.25;;;;;;;;;;4967894;28;20121;-63
2022/05/14 08:55:37;;;;;;;26.85;10.25;;;;;;;;;;4968269;28;20041;-62
2022/05/14 08:58:14;;;;;;;19.63;9.90;;;;;;;;;;4961747;28;20117;-62
2022/05/14 09:00:40;;;;;;;17.02;8.35;;;;;;;;;;4968374;28;20050;-62
2022/05/14 09:03:06;;;;;;;14.75;7.95;;;;;;;;;;4970274;28;20081;-62
2022/05/14 09:05:35;;;;;;;15.52;8.45;;;;;;;;;;4967835;28;20038;-63
2022/05/14 09:08:01;;;;;;;18.98;8.35;;;;;;;;;;4965980;28;20484;-62
2022/05/14 09:10:35;;;;;;;16.33;9.00;;;;;;;;;;4960851;28;20035;-62
2022/05/14 09:13:20;;;;;;;16.45;9.15;;;;;;;;;;4957124;28;20045;-63
2022/05/14 09:15:51;;;;;;;19.95;8.75;;;;;;;;;;4965343;28;20054;-62
2022/05/14 09:18:23;;;;;;;19.00;8.85;;;;;;;;;;4968502;28;20090;-63
2022/05/14 09:21:01;;;;;;;15.43;8.80;;;;;;;;;;4965240;28;20116;-62
2022/05/14 09:23:32;;;;;;;15.63;8.73;;;;;;;;;;4967513;28;20508;-62
2022/05/14 09:26:08;;;;;;;16.17;9.55;;;;;;;;;;4965362;28;20042;-63
2022/05/14 09:28:41;;;;;;;22.13;9.85;;;;;;;;;;4958160;28;20603;-63
2022/05/14 09:31:08;;;;;;;19.17;9.57;;;;;;;;;;4961463;28;20594;-62
2022/05/14 09:33:42;;;;;;;21.63;10.48;;;;;;;;;;4965841;28;20030;-63
2022/05/14 09:36:16;;;;;;;18.08;10.25;;;;;;;;;;4962042;28;20031;-63
2022/05/14 09:38:42;;;;;;;13.30;9.55;;;;;;;;;;4970323;28;20070;-63
2022/05/14 09:41:22;;;;;;;18.88;10.43;;;;;;;;;;4966310;28;20030;-63
2022/05/14 09:43:52;;;;;;;18.60;10.73;;;;;;;;;;4965773;28;20526;-62
2022/05/14 09:46:31;;;;;;;18.95;9.93;;;;;;;;;;4964585;28;20034;-63
2022/05/14 09:49:04;;;;;;;15.93;9.75;;;;;;;;;;4960283;28;20042;-63
2022/05/14 09:51:37;;;;;;;19.83;9.70;;;;;;;;;;4966381;28;20475;-63
2022/05/14 09:54:18;;;;;;;17.35;9.20;;;;;;;;;;4958404;28;20035;-63
2022/05/14 09:57:17;;;;;;;13.73;9.57;;;;;;;;;;4962534;28;20117;-63
2022/05/14 09:59:58;;;;;;;17.90;8.20;;;;;;;;;;4961598;28;20109;-62
2022/05/14 10:03:12;;;;;;;17.65;7.93;;;;;;;;;;4969819;28;20034;-61
2022/05/14 10:05:56;;;;;;;13.95;7.20;;;;;;;;;;4958977;28;20495;-63
2022/05/14 10:08:28;;;;;;;8.73;7.30;;;;;;;;;;4961845;28;20046;-63
2022/05/14 10:11:17;;;;;;;20.50;8.15;;;;;;;;;;4961176;28;20031;-63
2022/05/14 10:13:52;;;;;;;10.70;6.72;;;;;;;;;;4963090;28;20465;-63
2022/05/14 10:16:40;;;;;;;15.18;7.32;;;;;;;;;;4961413;28;20883;-63
2022/05/14 10:19:25;;;;;;;17.45;8.25;;;;;;;;;;4962382;28;20078;-63
2022/05/14 10:22:21;;;;;;;12.32;7.82;;;;;;;;;;4958435;28;20074;-63
2022/05/14 10:28:04;;;;;;;19.95;8.70;;;;;;;;;;4959446;28;20439;-63
2022/05/14 10:30:44;;;;;;;17.48;8.50;;;;;;;;;;4958666;28;20468;-63
2022/05/14 10:33:18;;;;;;;15.13;8.45;;;;;;;;;;4964240;28;20039;-62
2022/05/14 10:36:09;;;;;;;20.90;8.98;;;;;;;;;;4966396;28;20031;-63
2022/05/14 10:38:38;;;;;;;18.85;8.85;;;;;;;;;;4955287;28;20576;-63
2022/05/14 10:41:07;;;;;;;14.25;8.60;;;;;;;;;;4966149;28;20098;-62
2022/05/14 10:43:52;;;;;;;15.75;8.48;;;;;;;;;;4958489;28;20068;-63
2022/05/14 10:46:21;;;;;;;20.33;9.90;;;;;;;;;;4963706;28;20468;-63
2022/05/14 10:48:52;;;;;;;13.85;8.70;;;;;;;;;;4966183;28;20034;-64
2022/05/14 10:51:45;;;;;;;16.60;8.07;;;;;;;;;;4958709;28;20031;-63
2022/05/14 10:54:14;;;;;;;18.25;8.20;;;;;;;;;;4956916;28;20559;-63
2022/05/14 10:57:00;;;;;;;16.05;8.40;;;;;;;;;;4965323;28;20476;-63
2022/05/14 10:59:32;;;;;;;13.80;8.32;;;;;;;;;;4967362;28;20046;-63
2022/05/14 11:01:57;;;;;;;17.70;8.10;;;;;;;;;;4965110;28;20568;-63
2022/05/14 11:04:43;;;;;;;15.23;8.35;;;;;;;;;;4969513;28;20040;-63
2022/05/14 11:07:11;;;;;;;13.63;7.78;;;;;;;;;;4972750;28;20039;-63
2022/05/14 11:09:46;;;;;;;19.02;8.35;;;;;;;;;;4964975;28;20101;-63
2022/05/14 11:12:18;;;;;;;13.38;7.07;;;;;;;;;;4968354;28;20517;-63
2022/05/14 11:14:45;;;;;;;12.05;8.30;;;;;;;;;;4965361;28;20027;-63
2022/05/14 11:17:36;;;;;;;13.35;7.40;;;;;;;;;;4966490;28;20415;-63
2022/05/14 11:20:02;;;;;;;20.50;6.75;;;;;;;;;;4963948;28;20039;-61
2022/05/14 11:22:31;;;;;;;11.32;6.55;;;;;;;;;;4967319;28;20575;-61
2022/05/14 11:25:28;;;;;;;12.15;6.68;;;;;;;;;;4966732;28;20031;-61
2022/05/14 11:27:56;;;;;;;16.38;7.22;;;;;;;;;;4961532;28;20634;-61
2022/05/14 11:30:36;;;;;;;12.30;7.20;;;;;;;;;;4970020;28;20047;-60
2022/05/14 11:33:06;;;;;;;12.75;7.15;;;;;;;;;;4960869;28;20039;-60
2022/05/14 11:35:41;;;;;;;15.48;7.50;;;;;;;;;;4967877;28;20514;-61
2022/05/14 11:38:29;;;;;;;13.48;7.32;;;;;;;;;;4971351;28;20121;-61
2022/05/14 11:41:08;;;;;;;14.90;7.45;;;;;;;;;;4963802;28;20038;-61
2022/05/14 11:43:33;;;;;;;14.82;7.50;;;;;;;;;;4973199;28;20026;-60
2022/05/14 11:46:29;;;;;;;11.63;6.53;;;;;;;;;;4966100;28;20428;-60
2022/05/14 11:49:06;;;;;;;11.02;6.78;;;;;;;;;;4959559;28;20039;-60
2022/05/14 11:51:47;;;;;;;11.82;6.28;;;;;;;;;;4965266;28;20043;-61
2022/05/14 11:54:34;;;;;;;15.65;6.85;;;;;;;;;;4961553;28;20432;-60
2022/05/14 11:57:03;;;;;;;17.38;6.80;;;;;;;;;;4970660;28;20121;-61
2022/05/14 11:59:52;;;;;;;15.27;7.70;;;;;;;;;;4962369;28;20039;-60
2022/05/14 12:02:42;;;;;;;14.27;7.60;;;;;;;;;;4965114;28;20481;-60
2022/05/14 12:05:14;;;;;;;14.88;7.10;;;;;;;;;;4944699;28;20063;-60
2022/05/14 12:08:22;;;;;;;15.45;8.10;;;;;;;;;;4950657;28;20086;-60
2022/05/14 12:10:57;;;;;;;19.17;7.55;;;;;;;;;;4925595;28;20043;-61
2022/05/14 12:13:40;;;;;;;15.85;7.38;;;;;;;;;;4945073;28;20065;-60
2022/05/14 12:16:07;;;;;;;18.92;8.20;;;;;;;;;;4953318;28;20035;-60
2022/05/14 12:18:34;;;;;;;13.32;7.35;;;;;;;;;;4949625;28;20524;-61
2022/05/14 12:21:06;;;;;;;17.73;7.85;;;;;;;;;;4952635;28;20532;-61
2022/05/14 12:23:44;;;;;;;15.75;6.85;;;;;;;;;;4949395;28;20070;-60
2022/05/14 12:26:25;;;;;;;12.23;7.28;;;;;;;;;;4947001;28;20142;-60
2022/05/14 12:28:53;;;;;;;19.90;8.05;;;;;;;;;;4948750;28;20058;-60
2022/05/14 12:34:17;;;;;;;14.25;6.85;;;;;;;;;;4946318;28;20060;-61
2022/05/14 12:36:54;;;;;;;21.42;7.30;;;;;;;;;;4952152;28;20054;-60
2022/05/14 12:39:23;;;;;;;12.40;6.30;;;;;;;;;;4946873;28;20399;-61
2022/05/14 12:41:53;;;;;;;12.00;6.22;;;;;;;;;;4950102;28;20035;-63
2022/05/14 12:44:25;;;;;;;11.95;6.68;;;;;;;;;;4967644;28;20058;-64
2022/05/14 12:46:57;;;;;;;8.80;6.05;;;;;;;;;;4967129;28;20065;-63
2022/05/14 12:49:37;;;;;;;18.42;6.05;;;;;;;;;;4966581;28;20034;-62
2022/05/14 12:52:12;;;;;;;15.43;6.35;;;;;;;;;;4954829;28;20147;-62
2022/05/14 12:55:02;;;;;;;16.48;6.65;;;;;;;;;;4966940;28;20027;-63
2022/05/14 12:57:29;;;;;;;12.98;5.78;;;;;;;;;;4966295;28;20117;-63
2022/05/14 12:59:56;;;;;;;11.82;6.05;;;;;;;;;;4967476;28;20059;-62
2022/05/14 13:02:29;;;;;;;13.52;6.57;;;;;;;;;;4969136;28;20031;-61
2022/05/14 13:04:55;;;;;;;20.20;6.78;;;;;;;;;;4975606;28;20114;-60
2022/05/14 13:07:21;;;;;;;16.15;6.88;;;;;;;;;;4961638;28;20118;-61
2022/05/14 13:09:48;;;;;;;15.05;6.30;;;;;;;;;;4958279;28;20046;-62
2022/05/14 13:12:24;;;;;;;11.63;6.95;;;;;;;;;;4968393;28;20022;-62
2022/05/14 13:14:56;;;;;;;10.50;6.55;;;;;;;;;;4963981;28;20126;-62
2022/05/14 13:17:34;;;;;;;13.18;6.38;;;;;;;;;;4969532;28;20046;-58
2022/05/14 13:20:04;;;;;;;14.43;6.40;;;;;;;;;;4964563;28;20039;-62
2022/05/14 13:22:40;;;;;;;18.42;6.82;;;;;;;;;;4969176;28;20518;-62
2022/05/14 13:25:28;;;;;;;13.52;6.32;;;;;;;;;;4970058;28;20526;-62
2022/05/14 13:27:54;;;;;;;13.35;6.70;;;;;;;;;;4967769;28;20035;-60
2022/05/14 13:30:31;;;;;;;9.10;6.53;;;;;;;;;;4965784;28;20045;-60
2022/05/14 13:33:09;;;;;;;12.07;6.20;;;;;;;;;;4976815;28;20059;-60
2022/05/14 13:38:31;;;;;;;16.85;6.97;;;;;;;;;;4969080;28;20031;-62
2022/05/14 13:40:58;;;;;;;11.77;6.28;;;;;;;;;;4966666;28;20331;-63
2022/05/14 13:43:35;;;;;;;15.52;7.18;;;;;;;;;;4966492;28;20117;-60
2022/05/14 13:46:05;;;;;;;10.27;6.50;;;;;;;;;;4957657;28;20023;-60
2022/05/14 13:48:36;;;;;;;14.88;6.75;;;;;;;;;;4963470;28;20041;-62
2022/05/14 13:51:27;;;;;;;13.55;7.07;;;;;;;;;;4969679;28;20038;-62
2022/05/14 13:54:08;;;;;;;12.35;6.80;;;;;;;;;;4965760;28;20067;-62
2022/05/14 13:56:34;;;;;;;13.95;6.95;;;;;;;;;;4964936;28;20029;-62
2022/05/14 13:59:09;;;;;;;9.02;6.85;;;;;;;;;;4960692;28;20031;-62
2022/05/14 14:01:45;;;;;;;14.10;7.00;;;;;;;;;;4959401;28;20462;-62
2022/05/14 14:04:17;;;;;;;13.85;6.88;;;;;;;;;;4963238;28;20207;-62
2022/05/14 14:06:43;;;;;;;16.77;7.05;;;;;;;;;;4961209;28;20039;-62
2022/05/14 14:09:09;;;;;;;12.48;6.82;;;;;;;;;;4956816;28;20094;-62
2022/05/14 14:11:36;;;;;;;15.25;7.47;;;;;;;;;;4963358;28;20114;-62
2022/05/14 14:14:01;;;;;;;12.27;6.85;;;;;;;;;;4960429;28;20087;-62
2022/05/14 14:16:27;;;;;;;13.35;6.28;;;;;;;;;;4957762;28;20441;-63
2022/05/14 14:18:53;;;;;;;18.92;6.47;;;;;;;;;;4962709;28;20027;-62
2022/05/14 14:21:19;;;;;;;11.43;6.15;;;;;;;;;;4967462;28;20400;-62
2022/05/14 14:23:49;;;;;;;12.95;6.00;;;;;;;;;;4964904;28;21891;-63
2022/05/14 14:26:15;;;;;;;16.63;6.40;;;;;;;;;;4967281;28;20042;-62
2022/05/14 14:28:42;;;;;;;14.00;6.82;;;;;;;;;;4959190;28;20044;-62
2022/05/14 14:31:08;;;;;;;13.38;6.43;;;;;;;;;;4965362;28;20030;-61
2022/05/14 14:33:36;;;;;;;15.85;6.70;;;;;;;;;;4958844;28;20030;-51
2022/05/14 14:36:03;;;;;;;12.68;7.00;;;;;;;;;;4976055;28;20031;-61
2022/05/14 14:38:29;;;;;;;15.45;6.20;;;;;;;;;;4962940;28;20046;-62
2022/05/14 14:40:54;;;;;;;16.65;7.75;;;;;;;;;;4967609;28;20038;-62
2022/05/14 14:43:22;;;;;;;11.90;6.30;;;;;;;;;;4962225;28;20113;-62
2022/05/14 14:45:54;;;;;;;12.15;5.80;;;;;;;;;;4965877;28;20075;-63
2022/05/14 14:48:19;;;;;;;;;;;;;;;;;;4964301;28;20130;-62
2022/05/14 14:50:45;;;;;;;14.93;5.88;;;;;;;;;;4960409;28;19946;-62
2022/05/14 14:53:11;;;;;;;12.80;6.07;;;;;;;;;;4958354;28;20031;-62
2022/05/14 14:55:37;;;;;;;9.98;5.95;;;;;;;;;;4968460;28;20034;-62
2022/05/14 14:58:03;;;;;;;11.45;6.15;;;;;;;;;;4973012;28;20388;-62
2022/05/14 15:00:33;;;;;;;13.13;6.70;;;;;;;;;;4972921;28;20046;-62
2022/05/14 15:03:02;;;;;;;14.43;6.88;;;;;;;;;;4961359;28;20032;-62
2022/05/14 15:05:31;;;;;;;17.67;6.45;;;;;;;;;;4970393;28;20114;-62
2022/05/14 15:08:02;;;;;;;15.00;6.47;;;;;;;;;;4960391;28;20043;-63
2022/05/14 15:10:29;;;;;;;9.43;6.22;;;;;;;;;;4973915;28;20030;-63
2022/05/14 15:12:58;;;;;;;15.50;7.05;;;;;;;;;;4968927;28;20027;-62